sensor_id;sensor_type;location;lat;lon;timestamp;P1;durP1;ratioP1;P2;durP2;ratioP2
35442;SDS011;21561;55.654;37.592;2022-09-09T00:00:46;5.43;;;1.35;;
35442;SDS011;21561;55.654;37.592;2022-09-09T00:03:26;4.85;;;1.50;;
35442;SDS011;21561;55.654;37.592;2022-09-09T00:06:14;7.25;;;1.77;;
35442;SDS011;21561;55.654;37.592;2022-09-09T00:08:53;5.22;;;1.38;;
35442;SDS011;21561;55.654;37.592;2022-09-09T00:14:26;5.82;;;1.52;;
35442;SDS011;21561;55.654;37.592;2022-09-09T00:16:57;5.55;;;1.48;;
35442;SDS011;21561;55.654;37.592;2022-09-09T00:19:32;5.72;;;1.50;;
35442;SDS011;21561;55.654;37.592;2022-09-09T00:24:53;5.20;;;1.40;;
35442;SDS011;21561;55.654;37.592;2022-09-09T00:30:38;5.85;;;1.40;;
35442;SDS011;21561;55.654;37.592;2022-09-09T00:32:54;3.70;;;1.23;;
35442;SDS011;21561;55.654;37.592;2022-09-09T00:35:26;4.18;;;1.38;;
35442;SDS011;21561;55.654;37.592;2022-09-09T00:37:58;3.58;;;1.33;;
35442;SDS011;21561;55.654;37.592;2022-09-09T00:43:40;5.50;;;1.50;;
35442;SDS011;21561;55.654;37.592;2022-09-09T00:57:18;2.78;;;1.40;;
35442;SDS011;21561;55.654;37.592;2022-09-09T01:11:06;6.03;;;1.70;;
35442;SDS011;21561;55.654;37.592;2022-09-09T01:13:41;4.30;;;1.52;;
35442;SDS011;21561;55.654;37.592;2022-09-09T01:16:13;10.07;;;2.00;;
35442;SDS011;21561;55.654;37.592;2022-09-09T01:18:43;5.15;;;1.80;;
35442;SDS011;21561;55.654;37.592;2022-09-09T01:24:07;4.60;;;1.55;;
35442;SDS011;21561;55.654;37.592;2022-09-09T01:26:45;6.80;;;1.80;;
35442;SDS011;21561;55.654;37.592;2022-09-09T01:29:16;5.13;;;1.70;;
35442;SDS011;21561;55.654;37.592;2022-09-09T01:34:31;5.97;;;1.73;;
35442;SDS011;21561;55.654;37.592;2022-09-09T01:37:03;4.78;;;1.98;;
35442;SDS011;21561;55.654;37.592;2022-09-09T01:39:34;11.23;;;2.10;;
35442;SDS011;21561;55.654;37.592;2022-09-09T01:42:03;4.53;;;1.98;;
35442;SDS011;21561;55.654;37.592;2022-09-09T01:44:32;6.65;;;2.00;;
35442;SDS011;21561;55.654;37.592;2022-09-09T01:47:02;6.53;;;2.05;;
35442;SDS011;21561;55.654;37.592;2022-09-09T01:49:29;4.65;;;1.95;;
35442;SDS011;21561;55.654;37.592;2022-09-09T01:51:56;6.65;;;2.08;;
35442;SDS011;21561;55.654;37.592;2022-09-09T01:54:24;5.70;;;1.85;;
35442;SDS011;21561;55.654;37.592;2022-09-09T02:08:08;7.07;;;2.28;;
35442;SDS011;21561;55.654;37.592;2022-09-09T02:13:14;7.78;;;2.30;;
35442;SDS011;21561;55.654;37.592;2022-09-09T02:15:50;8.27;;;2.28;;
35442;SDS011;21561;55.654;37.592;2022-09-09T02:18:24;5.03;;;1.85;;
35442;SDS011;21561;55.654;37.592;2022-09-09T02:20:55;6.97;;;2.30;;
35442;SDS011;21561;55.654;37.592;2022-09-09T02:23:25;7.15;;;2.35;;
35442;SDS011;21561;55.654;37.592;2022-09-09T02:25:52;9.10;;;2.42;;
35442;SDS011;21561;55.654;37.592;2022-09-09T02:28:21;7.60;;;2.60;;
35442;SDS011;21561;55.654;37.592;2022-09-09T02:30:52;9.17;;;2.40;;
35442;SDS011;21561;55.654;37.592;2022-09-09T02:33:26;7.78;;;2.20;;
35442;SDS011;21561;55.654;37.592;2022-09-09T02:35:56;10.63;;;2.75;;
35442;SDS011;21561;55.654;37.592;2022-09-09T02:38:30;11.25;;;2.50;;
35442;SDS011;21561;55.654;37.592;2022-09-09T02:41:02;10.55;;;2.75;;
35442;SDS011;21561;55.654;37.592;2022-09-09T02:43:31;12.48;;;3.00;;
35442;SDS011;21561;55.654;37.592;2022-09-09T02:48:59;8.40;;;2.50;;
35442;SDS011;21561;55.654;37.592;2022-09-09T02:51:44;8.30;;;2.83;;
35442;SDS011;21561;55.654;37.592;2022-09-09T02:56:53;9.85;;;2.65;;
35442;SDS011;21561;55.654;37.592;2022-09-09T02:59:21;8.63;;;2.58;;
35442;SDS011;21561;55.654;37.592;2022-09-09T03:01:48;7.82;;;2.40;;
35442;SDS011;21561;55.654;37.592;2022-09-09T03:04:15;6.47;;;2.60;;
35442;SDS011;21561;55.654;37.592;2022-09-09T03:06:42;6.70;;;2.35;;
35442;SDS011;21561;55.654;37.592;2022-09-09T03:09:09;10.05;;;2.47;;
35442;SDS011;21561;55.654;37.592;2022-09-09T03:11:36;8.45;;;2.22;;
35442;SDS011;21561;55.654;37.592;2022-09-09T03:14:04;6.70;;;2.38;;
35442;SDS011;21561;55.654;37.592;2022-09-09T03:16:31;11.63;;;2.50;;
35442;SDS011;21561;55.654;37.592;2022-09-09T03:19:00;8.43;;;2.50;;
35442;SDS011;21561;55.654;37.592;2022-09-09T03:21:27;7.88;;;2.45;;
35442;SDS011;21561;55.654;37.592;2022-09-09T03:23:54;9.55;;;2.30;;
35442;SDS011;21561;55.654;37.592;2022-09-09T03:26:21;10.32;;;2.60;;
35442;SDS011;21561;55.654;37.592;2022-09-09T03:28:49;9.18;;;2.80;;
35442;SDS011;21561;55.654;37.592;2022-09-09T03:31:17;11.23;;;2.72;;
35442;SDS011;21561;55.654;37.592;2022-09-09T03:33:46;12.07;;;2.80;;
35442;SDS011;21561;55.654;37.592;2022-09-09T03:36:13;9.85;;;2.55;;
35442;SDS011;21561;55.654;37.592;2022-09-09T03:38:41;8.25;;;2.58;;
35442;SDS011;21561;55.654;37.592;2022-09-09T03:41:08;12.73;;;2.80;;
35442;SDS011;21561;55.654;37.592;2022-09-09T03:43:35;11.57;;;2.72;;
35442;SDS011;21561;55.654;37.592;2022-09-09T03:46:02;8.02;;;2.70;;
35442;SDS011;21561;55.654;37.592;2022-09-09T03:48:29;10.02;;;2.88;;
35442;SDS011;21561;55.654;37.592;2022-09-09T03:50:56;8.55;;;2.72;;
35442;SDS011;21561;55.654;37.592;2022-09-09T03:53:27;10.43;;;2.97;;
35442;SDS011;21561;55.654;37.592;2022-09-09T03:55:55;8.55;;;2.72;;
35442;SDS011;21561;55.654;37.592;2022-09-09T03:58:26;10.32;;;2.85;;
35442;SDS011;21561;55.654;37.592;2022-09-09T04:00:57;10.60;;;2.50;;
35442;SDS011;21561;55.654;37.592;2022-09-09T04:03:29;10.90;;;2.75;;
35442;SDS011;21561;55.654;37.592;2022-09-09T04:05:56;8.45;;;3.10;;
35442;SDS011;21561;55.654;37.592;2022-09-09T04:08:25;8.95;;;2.72;;
35442;SDS011;21561;55.654;37.592;2022-09-09T04:10:52;8.73;;;2.75;;
35442;SDS011;21561;55.654;37.592;2022-09-09T04:13:24;9.68;;;2.60;;
35442;SDS011;21561;55.654;37.592;2022-09-09T04:15:55;9.20;;;2.80;;
35442;SDS011;21561;55.654;37.592;2022-09-09T04:20:51;7.32;;;2.45;;
35442;SDS011;21561;55.654;37.592;2022-09-09T04:23:19;10.05;;;2.88;;
35442;SDS011;21561;55.654;37.592;2022-09-09T04:25:47;9.45;;;2.72;;
35442;SDS011;21561;55.654;37.592;2022-09-09T04:28:15;8.07;;;2.70;;
35442;SDS011;21561;55.654;37.592;2022-09-09T04:30:44;11.07;;;2.90;;
35442;SDS011;21561;55.654;37.592;2022-09-09T04:33:12;8.20;;;2.80;;
35442;SDS011;21561;55.654;37.592;2022-09-09T04:35:43;6.53;;;2.40;;
35442;SDS011;21561;55.654;37.592;2022-09-09T04:38:12;7.53;;;2.50;;
35442;SDS011;21561;55.654;37.592;2022-09-09T04:40:39;10.73;;;2.97;;
35442;SDS011;21561;55.654;37.592;2022-09-09T04:43:09;10.60;;;3.13;;
35442;SDS011;21561;55.654;37.592;2022-09-09T04:45:40;14.35;;;2.85;;
35442;SDS011;21561;55.654;37.592;2022-09-09T04:48:07;11.05;;;2.80;;
35442;SDS011;21561;55.654;37.592;2022-09-09T04:50:35;9.20;;;2.80;;
35442;SDS011;21561;55.654;37.592;2022-09-09T04:53:03;10.02;;;2.75;;
35442;SDS011;21561;55.654;37.592;2022-09-09T04:55:31;10.02;;;2.42;;
35442;SDS011;21561;55.654;37.592;2022-09-09T04:58:03;8.15;;;2.65;;
35442;SDS011;21561;55.654;37.592;2022-09-09T05:00:34;11.07;;;2.45;;
35442;SDS011;21561;55.654;37.592;2022-09-09T05:03:05;11.60;;;2.50;;
35442;SDS011;21561;55.654;37.592;2022-09-09T05:05:32;8.45;;;3.03;;
35442;SDS011;21561;55.654;37.592;2022-09-09T05:08:01;8.13;;;2.92;;
35442;SDS011;21561;55.654;37.592;2022-09-09T05:10:30;7.47;;;2.50;;
35442;SDS011;21561;55.654;37.592;2022-09-09T05:12:57;13.32;;;2.70;;
35442;SDS011;21561;55.654;37.592;2022-09-09T05:15:24;8.63;;;2.50;;
35442;SDS011;21561;55.654;37.592;2022-09-09T05:17:51;10.90;;;3.08;;
35442;SDS011;21561;55.654;37.592;2022-09-09T05:20:19;5.18;;;2.22;;
35442;SDS011;21561;55.654;37.592;2022-09-09T05:22:46;7.38;;;2.60;;
35442;SDS011;21561;55.654;37.592;2022-09-09T05:25:13;9.23;;;2.30;;
35442;SDS011;21561;55.654;37.592;2022-09-09T05:27:40;5.45;;;2.13;;
35442;SDS011;21561;55.654;37.592;2022-09-09T05:30:07;8.18;;;2.05;;
35442;SDS011;21561;55.654;37.592;2022-09-09T05:32:34;6.50;;;1.98;;
35442;SDS011;21561;55.654;37.592;2022-09-09T05:35:01;6.03;;;2.00;;
35442;SDS011;21561;55.654;37.592;2022-09-09T05:37:28;6.18;;;1.90;;
35442;SDS011;21561;55.654;37.592;2022-09-09T05:39:56;5.70;;;1.83;;
35442;SDS011;21561;55.654;37.592;2022-09-09T05:42:24;8.48;;;2.15;;
35442;SDS011;21561;55.654;37.592;2022-09-09T05:44:51;4.82;;;1.40;;
35442;SDS011;21561;55.654;37.592;2022-09-09T05:47:20;3.75;;;1.20;;
35442;SDS011;21561;55.654;37.592;2022-09-09T05:49:47;4.05;;;1.00;;
35442;SDS011;21561;55.654;37.592;2022-09-09T05:52:14;5.75;;;1.30;;
35442;SDS011;21561;55.654;37.592;2022-09-09T05:54:41;2.50;;;1.00;;
35442;SDS011;21561;55.654;37.592;2022-09-09T05:57:09;7.13;;;1.50;;
35442;SDS011;21561;55.654;37.592;2022-09-09T05:59:35;5.18;;;1.48;;
35442;SDS011;21561;55.654;37.592;2022-09-09T06:02:02;4.25;;;1.20;;
35442;SDS011;21561;55.654;37.592;2022-09-09T06:04:29;4.50;;;1.33;;
35442;SDS011;21561;55.654;37.592;2022-09-09T06:06:57;4.13;;;1.38;;
35442;SDS011;21561;55.654;37.592;2022-09-09T06:09:25;3.20;;;1.30;;
35442;SDS011;21561;55.654;37.592;2022-09-09T06:11:52;6.00;;;1.40;;
35442;SDS011;21561;55.654;37.592;2022-09-09T06:14:18;7.88;;;1.50;;
35442;SDS011;21561;55.654;37.592;2022-09-09T06:16:45;6.95;;;1.50;;
35442;SDS011;21561;55.654;37.592;2022-09-09T06:19:12;4.53;;;1.27;;
35442;SDS011;21561;55.654;37.592;2022-09-09T06:21:39;5.53;;;1.60;;
35442;SDS011;21561;55.654;37.592;2022-09-09T06:24:06;6.20;;;1.40;;
35442;SDS011;21561;55.654;37.592;2022-09-09T06:26:37;7.65;;;1.30;;
35442;SDS011;21561;55.654;37.592;2022-09-09T06:29:07;2.28;;;1.00;;
35442;SDS011;21561;55.654;37.592;2022-09-09T06:31:35;4.65;;;1.20;;
35442;SDS011;21561;55.654;37.592;2022-09-09T06:34:06;3.03;;;1.27;;
35442;SDS011;21561;55.654;37.592;2022-09-09T06:36:35;7.37;;;1.37;;
35442;SDS011;21561;55.654;37.592;2022-09-09T06:39:04;4.05;;;1.00;;
35442;SDS011;21561;55.654;37.592;2022-09-09T06:41:39;2.20;;;1.00;;
35442;SDS011;21561;55.654;37.592;2022-09-09T06:44:06;5.15;;;1.20;;
35442;SDS011;21561;55.654;37.592;2022-09-09T06:46:32;8.68;;;1.65;;
35442;SDS011;21561;55.654;37.592;2022-09-09T06:49:00;5.05;;;1.38;;
35442;SDS011;21561;55.654;37.592;2022-09-09T06:51:28;3.30;;;1.30;;
35442;SDS011;21561;55.654;37.592;2022-09-09T06:53:57;5.32;;;1.20;;
35442;SDS011;21561;55.654;37.592;2022-09-09T06:56:29;9.55;;;1.38;;
35442;SDS011;21561;55.654;37.592;2022-09-09T06:59:01;3.47;;;1.50;;
35442;SDS011;21561;55.654;37.592;2022-09-09T07:01:31;5.93;;;1.50;;
35442;SDS011;21561;55.654;37.592;2022-09-09T07:04:00;4.28;;;1.30;;
35442;SDS011;21561;55.654;37.592;2022-09-09T07:06:28;3.22;;;1.05;;
35442;SDS011;21561;55.654;37.592;2022-09-09T07:09:07;6.63;;;1.20;;
35442;SDS011;21561;55.654;37.592;2022-09-09T07:11:46;7.43;;;1.30;;
35442;SDS011;21561;55.654;37.592;2022-09-09T07:14:20;4.50;;;1.45;;
35442;SDS011;21561;55.654;37.592;2022-09-09T07:16:48;3.28;;;1.25;;
35442;SDS011;21561;55.654;37.592;2022-09-09T07:19:15;4.60;;;1.40;;
35442;SDS011;21561;55.654;37.592;2022-09-09T07:21:42;3.88;;;0.90;;
35442;SDS011;21561;55.654;37.592;2022-09-09T07:24:10;2.25;;;1.10;;
35442;SDS011;21561;55.654;37.592;2022-09-09T07:26:39;3.63;;;0.80;;
35442;SDS011;21561;55.654;37.592;2022-09-09T07:29:07;4.13;;;1.10;;
35442;SDS011;21561;55.654;37.592;2022-09-09T07:31:35;4.97;;;1.13;;
35442;SDS011;21561;55.654;37.592;2022-09-09T07:34:03;3.28;;;1.08;;
35442;SDS011;21561;55.654;37.592;2022-09-09T07:36:35;4.97;;;1.40;;
35442;SDS011;21561;55.654;37.592;2022-09-09T07:39:07;3.22;;;0.90;;
35442;SDS011;21561;55.654;37.592;2022-09-09T07:41:40;2.60;;;1.13;;
35442;SDS011;21561;55.654;37.592;2022-09-09T07:44:20;2.40;;;1.10;;
35442;SDS011;21561;55.654;37.592;2022-09-09T07:46:48;3.92;;;1.25;;
35442;SDS011;21561;55.654;37.592;2022-09-09T07:49:15;1.80;;;0.80;;
35442;SDS011;21561;55.654;37.592;2022-09-09T07:51:51;3.72;;;1.27;;
35442;SDS011;21561;55.654;37.592;2022-09-09T07:54:19;4.15;;;1.20;;
35442;SDS011;21561;55.654;37.592;2022-09-09T07:56:46;5.60;;;1.50;;
35442;SDS011;21561;55.654;37.592;2022-09-09T07:59:13;5.55;;;1.55;;
35442;SDS011;21561;55.654;37.592;2022-09-09T08:01:49;7.03;;;2.10;;
35442;SDS011;21561;55.654;37.592;2022-09-09T08:04:21;3.85;;;1.13;;
35442;SDS011;21561;55.654;37.592;2022-09-09T08:06:51;4.05;;;0.85;;
35442;SDS011;21561;55.654;37.592;2022-09-09T08:09:20;5.50;;;1.00;;
35442;SDS011;21561;55.654;37.592;2022-09-09T08:11:51;2.55;;;1.00;;
35442;SDS011;21561;55.654;37.592;2022-09-09T08:14:17;3.78;;;1.00;;
35442;SDS011;21561;55.654;37.592;2022-09-09T08:16:46;2.63;;;1.00;;
35442;SDS011;21561;55.654;37.592;2022-09-09T08:19:14;9.93;;;1.23;;
35442;SDS011;21561;55.654;37.592;2022-09-09T08:21:42;4.28;;;0.80;;
35442;SDS011;21561;55.654;37.592;2022-09-09T08:24:10;3.42;;;1.05;;
35442;SDS011;21561;55.654;37.592;2022-09-09T08:26:42;3.15;;;0.90;;
35442;SDS011;21561;55.654;37.592;2022-09-09T08:29:10;3.15;;;1.00;;
35442;SDS011;21561;55.654;37.592;2022-09-09T08:31:45;1.50;;;0.75;;
35442;SDS011;21561;55.654;37.592;2022-09-09T08:34:14;3.45;;;1.10;;
35442;SDS011;21561;55.654;37.592;2022-09-09T08:36:44;4.45;;;1.05;;
35442;SDS011;21561;55.654;37.592;2022-09-09T08:39:13;5.03;;;1.00;;
35442;SDS011;21561;55.654;37.592;2022-09-09T08:41:50;6.53;;;1.42;;
35442;SDS011;21561;55.654;37.592;2022-09-09T08:55:45;3.70;;;0.88;;
35442;SDS011;21561;55.654;37.592;2022-09-09T08:58:16;2.80;;;0.90;;
35442;SDS011;21561;55.654;37.592;2022-09-09T09:08:30;4.78;;;1.25;;
35442;SDS011;21561;55.654;37.592;2022-09-09T09:11:07;9.50;;;1.33;;
35442;SDS011;21561;55.654;37.592;2022-09-09T09:13:54;6.15;;;1.30;;
35442;SDS011;21561;55.654;37.592;2022-09-09T09:16:32;5.10;;;1.38;;
35442;SDS011;21561;55.654;37.592;2022-09-09T09:19:05;4.78;;;1.40;;
35442;SDS011;21561;55.654;37.592;2022-09-09T09:21:41;4.03;;;0.80;;
35442;SDS011;21561;55.654;37.592;2022-09-09T09:30:10;4.38;;;1.48;;
35442;SDS011;21561;55.654;37.592;2022-09-09T09:32:56;3.83;;;1.42;;
35442;SDS011;21561;55.654;37.592;2022-09-09T09:35:27;5.60;;;1.35;;
35442;SDS011;21561;55.654;37.592;2022-09-09T09:37:54;2.47;;;1.20;;
35442;SDS011;21561;55.654;37.592;2022-09-09T09:40:54;5.40;;;1.10;;
35442;SDS011;21561;55.654;37.592;2022-09-09T09:43:42;2.97;;;1.20;;
35442;SDS011;21561;55.654;37.592;2022-09-09T09:46:22;6.20;;;1.20;;
35442;SDS011;21561;55.654;37.592;2022-09-09T09:48:58;11.02;;;1.52;;
35442;SDS011;21561;55.654;37.592;2022-09-09T09:51:31;4.03;;;1.15;;
35442;SDS011;21561;55.654;37.592;2022-09-09T09:56:42;5.28;;;1.23;;
35442;SDS011;21561;55.654;37.592;2022-09-09T10:07:31;2.13;;;0.63;;
35442;SDS011;21561;55.654;37.592;2022-09-09T10:09:59;2.95;;;1.10;;
35442;SDS011;21561;55.654;37.592;2022-09-09T10:12:30;2.63;;;1.00;;
35442;SDS011;21561;55.654;37.592;2022-09-09T10:36:56;2.30;;;0.93;;
35442;SDS011;21561;55.654;37.592;2022-09-09T10:39:38;2.60;;;1.00;;
35442;SDS011;21561;55.654;37.592;2022-09-09T10:42:09;3.42;;;1.38;;
35442;SDS011;21561;55.654;37.592;2022-09-09T10:47:59;6.68;;;1.48;;
35442;SDS011;21561;55.654;37.592;2022-09-09T10:53:47;3.15;;;1.50;;
35442;SDS011;21561;55.654;37.592;2022-09-09T10:56:23;3.53;;;1.27;;
35442;SDS011;21561;55.654;37.592;2022-09-09T10:59:00;4.30;;;1.35;;
35442;SDS011;21561;55.654;37.592;2022-09-09T11:01:37;5.25;;;1.42;;
35442;SDS011;21561;55.654;37.592;2022-09-09T11:04:20;7.22;;;1.42;;
35442;SDS011;21561;55.654;37.592;2022-09-09T11:06:56;6.18;;;1.33;;
35442;SDS011;21561;55.654;37.592;2022-09-09T11:09:30;3.97;;;1.13;;
35442;SDS011;21561;55.654;37.592;2022-09-09T11:12:03;4.30;;;1.20;;
35442;SDS011;21561;55.654;37.592;2022-09-09T11:19:40;2.55;;;1.15;;
35442;SDS011;21561;55.654;37.592;2022-09-09T11:22:28;1.65;;;0.75;;
35442;SDS011;21561;55.654;37.592;2022-09-09T11:38:45;4.70;;;1.63;;
35442;SDS011;21561;55.654;37.592;2022-09-09T11:41:13;3.53;;;1.40;;
35442;SDS011;21561;55.654;37.592;2022-09-09T11:43:50;4.32;;;1.52;;
35442;SDS011;21561;55.654;37.592;2022-09-09T11:46:22;3.22;;;1.60;;
35442;SDS011;21561;55.654;37.592;2022-09-09T11:49:02;8.25;;;1.20;;
35442;SDS011;21561;55.654;37.592;2022-09-09T11:51:32;5.70;;;1.38;;
35442;SDS011;21561;55.654;37.592;2022-09-09T11:54:01;6.13;;;1.42;;
35442;SDS011;21561;55.654;37.592;2022-09-09T11:59:18;6.78;;;1.50;;
35442;SDS011;21561;55.654;37.592;2022-09-09T12:02:00;6.80;;;1.55;;
35442;SDS011;21561;55.654;37.592;2022-09-09T12:07:04;5.53;;;1.50;;
35442;SDS011;21561;55.654;37.592;2022-09-09T12:09:59;4.60;;;1.10;;
35442;SDS011;21561;55.654;37.592;2022-09-09T12:12:47;7.90;;;1.33;;
35442;SDS011;21561;55.654;37.592;2022-09-09T12:15:18;4.15;;;1.23;;
35442;SDS011;21561;55.654;37.592;2022-09-09T12:17:48;8.27;;;1.48;;
35442;SDS011;21561;55.654;37.592;2022-09-09T12:23:30;6.07;;;1.52;;
35442;SDS011;21561;55.654;37.592;2022-09-09T12:26:16;7.00;;;1.75;;
35442;SDS011;21561;55.654;37.592;2022-09-09T12:34:42;3.78;;;1.17;;
35442;SDS011;21561;55.654;37.592;2022-09-09T12:37:13;6.18;;;1.40;;
35442;SDS011;21561;55.654;37.592;2022-09-09T12:39:56;5.13;;;1.30;;
35442;SDS011;21561;55.654;37.592;2022-09-09T12:42:26;4.72;;;1.63;;
35442;SDS011;21561;55.654;37.592;2022-09-09T12:44:54;1.50;;;1.05;;
35442;SDS011;21561;55.654;37.592;2022-09-09T12:47:22;5.88;;;1.70;;
35442;SDS011;21561;55.654;37.592;2022-09-09T12:52:48;5.07;;;1.40;;
35442;SDS011;21561;55.654;37.592;2022-09-09T12:55:19;7.15;;;1.58;;
35442;SDS011;21561;55.654;37.592;2022-09-09T12:57:48;3.85;;;1.40;;
35442;SDS011;21561;55.654;37.592;2022-09-09T13:00:17;4.03;;;1.17;;
35442;SDS011;21561;55.654;37.592;2022-09-09T13:02:56;4.28;;;1.60;;
35442;SDS011;21561;55.654;37.592;2022-09-09T13:05:28;9.30;;;1.63;;
35442;SDS011;21561;55.654;37.592;2022-09-09T13:08:05;3.65;;;1.50;;
35442;SDS011;21561;55.654;37.592;2022-09-09T13:10:38;5.53;;;1.60;;
35442;SDS011;21561;55.654;37.592;2022-09-09T13:13:23;8.07;;;1.77;;
35442;SDS011;21561;55.654;37.592;2022-09-09T13:16:04;6.05;;;1.70;;
35442;SDS011;21561;55.654;37.592;2022-09-09T13:18:35;6.25;;;1.50;;
35442;SDS011;21561;55.654;37.592;2022-09-09T13:21:04;7.95;;;2.33;;
35442;SDS011;21561;55.654;37.592;2022-09-09T13:23:34;3.78;;;1.80;;
35442;SDS011;21561;55.654;37.592;2022-09-09T13:26:07;4.13;;;1.50;;
35442;SDS011;21561;55.654;37.592;2022-09-09T13:28:50;3.80;;;1.60;;
35442;SDS011;21561;55.654;37.592;2022-09-09T13:31:22;3.88;;;1.70;;
35442;SDS011;21561;55.654;37.592;2022-09-09T13:33:53;5.35;;;1.45;;
35442;SDS011;21561;55.654;37.592;2022-09-09T13:36:27;5.97;;;1.17;;
35442;SDS011;21561;55.654;37.592;2022-09-09T13:38:57;7.38;;;1.95;;
35442;SDS011;21561;55.654;37.592;2022-09-09T13:41:32;10.45;;;1.70;;
35442;SDS011;21561;55.654;37.592;2022-09-09T13:44:17;3.22;;;1.20;;
35442;SDS011;21561;55.654;37.592;2022-09-09T13:47:06;3.97;;;1.58;;
35442;SDS011;21561;55.654;37.592;2022-09-09T13:49:39;4.07;;;1.33;;
35442;SDS011;21561;55.654;37.592;2022-09-09T13:52:13;5.05;;;1.10;;
35442;SDS011;21561;55.654;37.592;2022-09-09T13:54:41;5.75;;;1.30;;
35442;SDS011;21561;55.654;37.592;2022-09-09T13:57:20;2.78;;;1.10;;
35442;SDS011;21561;55.654;37.592;2022-09-09T13:59:48;7.18;;;1.20;;
35442;SDS011;21561;55.654;37.592;2022-09-09T14:02:32;3.90;;;1.00;;
35442;SDS011;21561;55.654;37.592;2022-09-09T14:05:01;4.60;;;1.45;;
35442;SDS011;21561;55.654;37.592;2022-09-09T14:07:28;4.53;;;1.20;;
35442;SDS011;21561;55.654;37.592;2022-09-09T14:09:55;6.97;;;1.30;;
35442;SDS011;21561;55.654;37.592;2022-09-09T14:12:22;6.95;;;1.40;;
35442;SDS011;21561;55.654;37.592;2022-09-09T14:14:49;4.88;;;1.17;;
35442;SDS011;21561;55.654;37.592;2022-09-09T14:17:16;3.60;;;1.25;;
35442;SDS011;21561;55.654;37.592;2022-09-09T14:19:43;5.72;;;1.50;;
35442;SDS011;21561;55.654;37.592;2022-09-09T14:22:11;3.83;;;0.88;;
35442;SDS011;21561;55.654;37.592;2022-09-09T14:24:38;4.15;;;1.00;;
35442;SDS011;21561;55.654;37.592;2022-09-09T14:27:05;4.30;;;1.00;;
35442;SDS011;21561;55.654;37.592;2022-09-09T14:29:32;2.55;;;1.10;;
35442;SDS011;21561;55.654;37.592;2022-09-09T14:31:59;3.10;;;1.23;;
35442;SDS011;21561;55.654;37.592;2022-09-09T14:34:27;4.72;;;1.33;;
35442;SDS011;21561;55.654;37.592;2022-09-09T14:36:54;3.67;;;1.02;;
35442;SDS011;21561;55.654;37.592;2022-09-09T14:39:20;4.85;;;1.15;;
35442;SDS011;21561;55.654;37.592;2022-09-09T14:41:47;4.47;;;1.30;;
35442;SDS011;21561;55.654;37.592;2022-09-09T14:44:14;5.88;;;1.38;;
35442;SDS011;21561;55.654;37.592;2022-09-09T14:46:42;3.42;;;1.75;;
35442;SDS011;21561;55.654;37.592;2022-09-09T14:49:09;4.60;;;1.60;;
35442;SDS011;21561;55.654;37.592;2022-09-09T14:51:36;3.88;;;1.50;;
35442;SDS011;21561;55.654;37.592;2022-09-09T14:54:03;5.15;;;1.52;;
35442;SDS011;21561;55.654;37.592;2022-09-09T14:56:33;6.05;;;1.30;;
35442;SDS011;21561;55.654;37.592;2022-09-09T14:59:04;7.38;;;1.60;;
35442;SDS011;21561;55.654;37.592;2022-09-09T15:01:30;10.23;;;2.00;;
35442;SDS011;21561;55.654;37.592;2022-09-09T15:03:59;3.65;;;1.58;;
35442;SDS011;21561;55.654;37.592;2022-09-09T15:06:28;6.35;;;2.00;;
35442;SDS011;21561;55.654;37.592;2022-09-09T15:08:59;7.32;;;2.00;;
35442;SDS011;21561;55.654;37.592;2022-09-09T15:11:27;7.32;;;1.90;;
35442;SDS011;21561;55.654;37.592;2022-09-09T15:13:56;7.28;;;2.22;;
35442;SDS011;21561;55.654;37.592;2022-09-09T15:16:25;5.00;;;1.60;;
35442;SDS011;21561;55.654;37.592;2022-09-09T15:18:54;6.15;;;1.95;;
35442;SDS011;21561;55.654;37.592;2022-09-09T15:21:25;6.97;;;2.10;;
35442;SDS011;21561;55.654;37.592;2022-09-09T15:23:53;7.20;;;2.05;;
35442;SDS011;21561;55.654;37.592;2022-09-09T15:26:21;5.25;;;1.90;;
35442;SDS011;21561;55.654;37.592;2022-09-09T15:28:48;6.60;;;1.80;;
35442;SDS011;21561;55.654;37.592;2022-09-09T15:31:18;3.55;;;1.73;;
35442;SDS011;21561;55.654;37.592;2022-09-09T15:33:50;4.78;;;1.65;;
35442;SDS011;21561;55.654;37.592;2022-09-09T15:36:19;3.45;;;1.40;;
35442;SDS011;21561;55.654;37.592;2022-09-09T15:38:48;6.65;;;2.10;;
35442;SDS011;21561;55.654;37.592;2022-09-09T15:41:16;8.85;;;1.70;;
35442;SDS011;21561;55.654;37.592;2022-09-09T15:43:44;7.80;;;1.73;;
35442;SDS011;21561;55.654;37.592;2022-09-09T15:49:32;10.75;;;1.90;;
35442;SDS011;21561;55.654;37.592;2022-09-09T15:51:55;6.97;;;1.83;;
35442;SDS011;21561;55.654;37.592;2022-09-09T15:54:34;4.78;;;1.35;;
35442;SDS011;21561;55.654;37.592;2022-09-09T15:57:03;8.60;;;2.00;;
35442;SDS011;21561;55.654;37.592;2022-09-09T15:59:31;6.97;;;1.92;;
35442;SDS011;21561;55.654;37.592;2022-09-09T16:01:59;7.15;;;1.73;;
35442;SDS011;21561;55.654;37.592;2022-09-09T16:04:27;8.52;;;2.10;;
35442;SDS011;21561;55.654;37.592;2022-09-09T16:06:57;7.68;;;1.70;;
35442;SDS011;21561;55.654;37.592;2022-09-09T16:09:26;4.38;;;1.60;;
35442;SDS011;21561;55.654;37.592;2022-09-09T16:11:57;7.78;;;1.80;;
35442;SDS011;21561;55.654;37.592;2022-09-09T16:14:27;13.02;;;2.00;;
35442;SDS011;21561;55.654;37.592;2022-09-09T16:16:54;6.43;;;1.85;;
35442;SDS011;21561;55.654;37.592;2022-09-09T16:19:22;11.48;;;2.05;;
35442;SDS011;21561;55.654;37.592;2022-09-09T16:21:49;6.88;;;1.73;;
35442;SDS011;21561;55.654;37.592;2022-09-09T16:24:17;5.07;;;1.60;;
35442;SDS011;21561;55.654;37.592;2022-09-09T16:26:46;10.52;;;2.20;;
35442;SDS011;21561;55.654;37.592;2022-09-09T16:29:15;9.05;;;1.73;;
35442;SDS011;21561;55.654;37.592;2022-09-09T16:31:44;14.65;;;2.47;;
35442;SDS011;21561;55.654;37.592;2022-09-09T16:34:12;10.18;;;2.22;;
35442;SDS011;21561;55.654;37.592;2022-09-09T16:36:41;8.30;;;2.38;;
35442;SDS011;21561;55.654;37.592;2022-09-09T16:39:10;10.73;;;2.13;;
35442;SDS011;21561;55.654;37.592;2022-09-09T16:41:39;9.90;;;2.13;;
35442;SDS011;21561;55.654;37.592;2022-09-09T16:44:08;13.10;;;2.55;;
35442;SDS011;21561;55.654;37.592;2022-09-09T16:46:38;9.18;;;2.08;;
35442;SDS011;21561;55.654;37.592;2022-09-09T16:49:07;11.07;;;2.30;;
35442;SDS011;21561;55.654;37.592;2022-09-09T16:51:40;11.38;;;2.13;;
35442;SDS011;21561;55.654;37.592;2022-09-09T16:54:09;15.07;;;2.83;;
35442;SDS011;21561;55.654;37.592;2022-09-09T16:56:38;12.25;;;2.42;;
35442;SDS011;21561;55.654;37.592;2022-09-09T16:59:09;11.45;;;2.30;;
35442;SDS011;21561;55.654;37.592;2022-09-09T17:01:38;16.27;;;4.55;;
35442;SDS011;21561;55.654;37.592;2022-09-09T17:04:11;14.85;;;3.15;;
35442;SDS011;21561;55.654;37.592;2022-09-09T17:06:40;15.95;;;2.85;;
35442;SDS011;21561;55.654;37.592;2022-09-09T17:09:08;15.77;;;3.03;;
35442;SDS011;21561;55.654;37.592;2022-09-09T17:11:37;8.70;;;2.58;;
35442;SDS011;21561;55.654;37.592;2022-09-09T17:14:05;9.70;;;2.47;;
35442;SDS011;21561;55.654;37.592;2022-09-09T17:16:35;11.93;;;2.95;;
35442;SDS011;21561;55.654;37.592;2022-09-09T17:19:03;12.20;;;3.13;;
35442;SDS011;21561;55.654;37.592;2022-09-09T17:21:31;14.73;;;3.50;;
35442;SDS011;21561;55.654;37.592;2022-09-09T17:23:58;23.48;;;4.82;;
35442;SDS011;21561;55.654;37.592;2022-09-09T17:26:26;17.25;;;3.65;;
35442;SDS011;21561;55.654;37.592;2022-09-09T17:28:56;15.38;;;3.80;;
35442;SDS011;21561;55.654;37.592;2022-09-09T17:31:25;14.02;;;3.40;;
35442;SDS011;21561;55.654;37.592;2022-09-09T17:33:54;14.32;;;3.70;;
35442;SDS011;21561;55.654;37.592;2022-09-09T17:36:22;13.45;;;4.15;;
35442;SDS011;21561;55.654;37.592;2022-09-09T17:38:51;15.95;;;3.55;;